createdAt,value
2023-05-17T00:02:01.813Z,98742.94
2023-05-17T00:04:30.514Z,98733.00
2023-05-17T00:06:58.942Z,98733.81
2023-05-17T00:09:28.946Z,98750.72
2023-05-17T00:11:57.345Z,98742.75
2023-05-17T00:14:25.825Z,98745.81
2023-05-17T00:16:54.375Z,98740.59
2023-05-17T00:19:22.901Z,98751.66
2023-05-17T00:21:51.491Z,98759.13
2023-05-17T00:24:19.892Z,98761.06
2023-05-17T00:26:49.720Z,98758.63
2023-05-17T00:29:18.141Z,98767.25
2023-05-17T00:31:46.566Z,98766.41
2023-05-17T00:34:14.938Z,98768.03
2023-05-17T00:36:43.333Z,98763.94
2023-05-17T00:39:11.743Z,98759.22
2023-05-17T00:41:40.167Z,98759.50
2023-05-17T00:44:10.020Z,98755.09
2023-05-17T00:46:38.391Z,98760.63
2023-05-17T00:49:06.894Z,98760.13
2023-05-17T00:51:35.931Z,98764.81
2023-05-17T00:54:06.413Z,98756.03
2023-05-17T00:56:34.999Z,98751.91
2023-05-17T00:59:05.653Z,98756.94
2023-05-17T01:01:36.893Z,98763.63
2023-05-17T01:04:05.687Z,98756.75
2023-05-17T01:06:34.581Z,98768.91
2023-05-17T01:09:03.248Z,98772.81
2023-05-17T01:11:43.617Z,98768.41
2023-05-17T01:14:34.833Z,98777.31
2023-05-17T01:17:13.561Z,98785.31
2023-05-17T01:20:09.432Z,98775.16
2023-05-17T01:22:52.988Z,98783.75
2023-05-17T01:25:54.002Z,98789.06
2023-05-17T01:28:26.016Z,98795.13
2023-05-17T01:30:57.625Z,98795.44
2023-05-17T01:33:29.250Z,98797.88
2023-05-17T01:35:57.704Z,98797.38
2023-05-17T01:38:26.244Z,98804.00
2023-05-17T01:41:09.065Z,98810.44
2023-05-17T01:43:49.255Z,98806.06
2023-05-17T01:46:25.987Z,98812.69
2023-05-17T01:49:01.978Z,98824.91
2023-05-17T01:51:38.236Z,98831.53
2023-05-17T01:54:12.232Z,98830.69
2023-05-17T01:56:49.298Z,98824.66
2023-05-17T01:59:25.370Z,98843.19
2023-05-17T02:01:56.584Z,98838.78
2023-05-17T02:04:25.048Z,98828.03
2023-05-17T02:06:53.492Z,98836.63
2023-05-17T02:09:21.929Z,98846.34
2023-05-17T02:11:50.412Z,98849.09
2023-05-17T02:14:20.159Z,98842.22
2023-05-17T02:16:48.584Z,98851.94
2023-05-17T02:19:17.074Z,98859.72
2023-05-17T02:21:45.519Z,98853.66
2023-05-17T02:24:13.957Z,98851.50
2023-05-17T02:26:43.410Z,98864.00
2023-05-17T02:29:12.204Z,98868.19
2023-05-17T02:31:42.217Z,98855.78
2023-05-17T02:34:10.671Z,98854.13
2023-05-17T02:36:40.428Z,98859.13
2023-05-17T02:39:08.874Z,98863.84
2023-05-17T02:41:37.266Z,98866.41
2023-05-17T02:44:05.734Z,98869.44
2023-05-17T02:46:36.318Z,98875.28
2023-05-17T02:49:07.464Z,98877.50
2023-05-17T02:51:35.825Z,98884.97
2023-05-17T02:54:04.235Z,98876.16
2023-05-17T02:56:33.026Z,98883.63
2023-05-17T02:59:02.330Z,98885.88
2023-05-17T03:01:30.791Z,98887.28
2023-05-17T03:03:59.504Z,98888.69
2023-05-17T03:06:29.402Z,98889.31
2023-05-17T03:08:57.855Z,98898.69
2023-05-17T03:11:26.333Z,98893.75
2023-05-17T03:13:54.725Z,98888.84
2023-05-17T03:16:23.149Z,98896.63
2023-05-17T03:18:51.667Z,98895.78
2023-05-17T03:21:20.143Z,98898.84
2023-05-17T03:23:49.922Z,98903.84
2023-05-17T03:26:19.243Z,98902.22
2023-05-17T03:28:47.795Z,98924.53
2023-05-17T03:31:17.533Z,98927.91
2023-05-17T03:33:46.538Z,98934.53
2023-05-17T03:36:15.192Z,98936.78
2023-05-17T03:38:44.015Z,98945.34
2023-05-17T03:41:14.080Z,98937.66
2023-05-17T03:43:42.514Z,98946.25
2023-05-17T03:46:11.470Z,98942.13
2023-05-17T03:48:39.936Z,98951.81
2023-05-17T03:51:08.509Z,98957.09
2023-05-17T03:53:41.216Z,98967.59
2023-05-17T03:56:09.851Z,98976.19
2023-05-17T03:58:39.683Z,98975.66
2023-05-17T04:01:08.083Z,98981.75
2023-05-17T04:03:37.462Z,98998.59
2023-05-17T04:06:07.495Z,99000.00
2023-05-17T04:08:36.567Z,99004.16
2023-05-17T04:11:10.778Z,99006.41
2023-05-17T04:13:40.934Z,99014.44
2023-05-17T04:16:09.992Z,99009.50
2023-05-17T04:18:39.785Z,99022.78
2023-05-17T04:21:08.411Z,99032.16
2023-05-17T04:23:36.972Z,99031.91
2023-05-17T04:26:06.201Z,99033.31
2023-05-17T04:28:35.393Z,99039.63
2023-05-17T04:31:09.305Z,99037.19
2023-05-17T04:33:38.333Z,99046.03
2023-05-17T04:36:07.596Z,99045.22
2023-05-17T04:38:36.104Z,99026.50
2023-05-17T04:41:05.170Z,99044.13
2023-05-17T04:43:34.427Z,99050.25
2023-05-17T04:46:05.635Z,99044.47
2023-05-17T04:48:34.637Z,99057.72
2023-05-17T04:51:05.200Z,99054.13
2023-05-17T04:53:33.862Z,99065.47
2023-05-17T04:56:02.266Z,99064.94
2023-05-17T04:58:31.950Z,99069.38
2023-05-17T05:01:00.401Z,99077.09
2023-05-17T05:03:30.311Z,99082.38
2023-05-17T05:05:58.830Z,99076.63
2023-05-17T05:08:27.405Z,99072.50
2023-05-17T05:10:55.816Z,99080.81
2023-05-17T05:13:24.260Z,99085.78
2023-05-17T05:15:52.735Z,99085.50
2023-05-17T05:18:21.335Z,99084.16
2023-05-17T05:20:51.495Z,99092.72
2023-05-17T05:23:19.886Z,99099.31
2023-05-17T05:25:48.371Z,99105.13
2023-05-17T05:28:16.827Z,99099.09
2023-05-17T05:30:45.382Z,99115.91
2023-05-17T05:33:13.934Z,99115.34
2023-05-17T05:35:42.400Z,99127.19
2023-05-17T05:38:12.199Z,99127.47
2023-05-17T05:40:40.744Z,99132.13
2023-05-17T05:43:09.148Z,99144.56
2023-05-17T05:45:37.623Z,99143.19
2023-05-17T05:48:08.895Z,99138.78
2023-05-17T05:50:37.412Z,99152.28
2023-05-17T05:53:17.092Z,99153.09
2023-05-17T05:55:47.974Z,99156.16
2023-05-17T05:58:16.456Z,99157.53
2023-05-17T06:00:45.000Z,99151.50
2023-05-17T06:03:13.347Z,99168.56
2023-05-17T06:05:41.958Z,99161.41
2023-05-17T06:08:10.575Z,99174.06
2023-05-17T06:10:39.103Z,99164.97
2023-05-17T06:13:09.030Z,99176.00
2023-05-17T06:15:37.913Z,99178.47
2023-05-17T06:18:06.850Z,99177.06
2023-05-17T06:20:35.406Z,99181.19
2023-05-17T06:23:05.247Z,99164.38
2023-05-17T06:25:33.758Z,99171.00
2023-05-17T06:28:03.927Z,99179.53
2023-05-17T06:30:33.822Z,99180.38
2023-05-17T06:33:02.506Z,99174.59
2023-05-17T06:35:37.513Z,99177.06
2023-05-17T06:38:09.165Z,99176.78
2023-05-17T06:40:37.690Z,99189.19
2023-05-17T06:43:06.561Z,99199.94
2023-05-17T06:45:36.464Z,99207.09
2023-05-17T06:48:05.221Z,99194.97
2023-05-17T06:50:33.786Z,99200.50
2023-05-17T06:53:02.332Z,99199.66
2023-05-17T06:55:31.873Z,99212.59
2023-05-17T06:58:00.815Z,99216.75
2023-05-17T07:00:29.748Z,99228.88
2023-05-17T07:03:02.716Z,99244.59
2023-05-17T07:05:31.472Z,99239.09
2023-05-17T07:08:00.905Z,99239.91
2023-05-17T07:10:29.345Z,99248.44
2023-05-17T07:13:00.588Z,99252.28
2023-05-17T07:15:29.377Z,99248.69
2023-05-17T07:17:59.810Z,99257.81
2023-05-17T07:20:28.334Z,99259.72
2023-05-17T07:22:57.263Z,99263.31
2023-05-17T07:25:25.879Z,99244.03
2023-05-17T07:27:54.314Z,99260.56
2023-05-17T07:30:22.834Z,99263.56
2023-05-17T07:32:51.902Z,99263.56
2023-05-17T07:35:21.995Z,99269.91
2023-05-17T07:37:50.690Z,99272.41
2023-05-17T07:40:19.594Z,99277.91
2023-05-17T07:42:48.030Z,99279.59
2023-05-17T07:45:16.656Z,99278.75
2023-05-17T07:47:45.179Z,99296.38
2023-05-17T07:50:13.962Z,99287.56
2023-05-17T07:52:43.753Z,99287.56
2023-05-17T07:55:12.479Z,99291.97
2023-05-17T07:57:41.469Z,99290.88
2023-05-17T08:00:12.873Z,99282.59
2023-05-17T08:02:41.571Z,99269.09
2023-05-17T08:05:11.384Z,99271.84
2023-05-17T08:07:39.962Z,99284.53
2023-05-17T08:10:11.304Z,99287.84
2023-05-17T08:12:40.335Z,99283.97
2023-05-17T08:15:10.545Z,99289.47
2023-05-17T08:17:39.129Z,99277.34
2023-05-17T08:20:09.867Z,99298.25
2023-05-17T08:22:38.379Z,99283.88
2023-05-17T08:25:09.595Z,99295.72
2023-05-17T08:27:38.085Z,99281.91
2023-05-17T08:30:11.943Z,99292.66
2023-05-17T08:32:45.033Z,99301.72
2023-05-17T08:35:14.042Z,99300.88
2023-05-17T08:37:43.053Z,99316.28
2023-05-17T08:40:14.931Z,99300.25
2023-05-17T08:42:43.840Z,99308.81
2023-05-17T08:45:13.084Z,99312.06
2023-05-17T08:47:43.234Z,99311.75
2023-05-17T08:50:13.006Z,99310.06
2023-05-17T08:52:44.895Z,99306.75
2023-05-17T08:55:16.429Z,99308.69
2023-05-17T08:57:45.978Z,99311.41
2023-05-17T09:00:20.892Z,99304.50
2023-05-17T09:02:49.416Z,99323.50
2023-05-17T09:05:18.990Z,99311.06
2023-05-17T09:07:49.489Z,99322.91
2023-05-17T09:10:19.616Z,99304.16
2023-05-17T09:12:48.439Z,99321.81
2023-05-17T09:15:19.247Z,99325.66
2023-05-17T09:17:54.185Z,99321.81
2023-05-17T09:20:34.057Z,99335.03
2023-05-17T09:23:02.968Z,99328.69
2023-05-17T09:25:33.284Z,99340.59
2023-05-17T09:28:04.822Z,99347.75
2023-05-17T09:30:35.113Z,99343.88
2023-05-17T09:33:08.274Z,99359.63
2023-05-17T09:35:38.640Z,99368.19
2023-05-17T09:38:09.724Z,99351.66
2023-05-17T09:40:44.301Z,99345.91
2023-05-17T09:43:13.876Z,99380.13
2023-05-17T09:45:42.580Z,99382.03
2023-05-17T09:48:15.891Z,99372.94
2023-05-17T09:50:48.738Z,99385.06
2023-05-17T09:53:27.811Z,99386.72
2023-05-17T09:56:00.011Z,99379.25
2023-05-17T09:58:29.878Z,99381.19
2023-05-17T10:01:01.919Z,99389.50
2023-05-17T10:03:35.620Z,99370.75
2023-05-17T10:06:07.468Z,99380.44
2023-05-17T10:08:36.703Z,99380.97
2023-05-17T10:11:10.525Z,99382.13
2023-05-17T10:13:46.817Z,99387.66
2023-05-17T10:16:16.129Z,99386.06
2023-05-17T10:18:45.395Z,99379.41
2023-05-17T10:21:14.098Z,99400.69
2023-05-17T10:23:44.302Z,99397.13
2023-05-17T10:26:16.554Z,99408.16
2023-05-17T10:28:46.513Z,99414.81
2023-05-17T10:31:15.972Z,99428.59
2023-05-17T10:33:47.601Z,99420.91
2023-05-17T10:36:19.378Z,99405.47
2023-05-17T10:38:48.718Z,99419.78
2023-05-17T10:41:21.796Z,99412.34
2023-05-17T10:43:50.861Z,99408.47
2023-05-17T10:46:21.759Z,99414.00
2023-05-17T10:48:52.160Z,99406.28
2023-05-17T10:51:25.640Z,99415.91
2023-05-17T10:54:12.038Z,99414.28
2023-05-17T10:56:50.904Z,99410.38
2023-05-17T10:59:23.378Z,99407.38
2023-05-17T11:02:01.681Z,99390.53
2023-05-17T11:04:36.824Z,99397.41
2023-05-17T11:07:25.986Z,99392.75
2023-05-17T11:09:57.185Z,99401.81
2023-05-17T11:12:38.472Z,99417.25
2023-05-17T11:15:11.101Z,99412.28
2023-05-17T11:17:51.771Z,99435.72
2023-05-17T11:20:37.921Z,99432.72
2023-05-17T11:23:08.744Z,99448.44
2023-05-17T11:25:39.688Z,99447.31
2023-05-17T11:28:11.319Z,99447.31
2023-05-17T11:30:51.136Z,99443.19
2023-05-17T11:33:32.352Z,99443.19
2023-05-17T11:36:07.474Z,99438.78
2023-05-17T11:38:35.895Z,99451.44
2023-05-17T11:43:53.474Z,99462.78
2023-05-17T11:46:24.264Z,99476.56
2023-05-17T11:48:54.394Z,99475.47
2023-05-17T11:51:24.914Z,99476.31
2023-05-17T11:53:56.692Z,99485.97
2023-05-17T11:56:32.441Z,99475.47
2023-05-17T11:59:12.181Z,99476.28
2023-05-17T12:01:48.215Z,99466.91
2023-05-17T12:04:25.818Z,99476.28
2023-05-17T12:06:55.527Z,99482.63
2023-05-17T12:09:26.254Z,99480.41
2023-05-17T12:11:55.642Z,99488.38
2023-05-17T12:14:26.083Z,99491.97
2023-05-17T12:16:57.968Z,99493.66
2023-05-17T12:19:29.816Z,99495.03
2023-05-17T12:22:09.438Z,99505.50
2023-05-17T12:24:42.427Z,99512.41
2023-05-17T12:27:11.535Z,99510.22
2023-05-17T12:29:42.078Z,99511.59
2023-05-17T12:32:11.712Z,99504.69
2023-05-17T12:34:41.906Z,99507.19
2023-05-17T12:37:11.210Z,99501.13
2023-05-17T12:39:40.493Z,99504.16
2023-05-17T12:42:10.409Z,99501.38
2023-05-17T12:44:39.039Z,99500.84
2023-05-17T12:47:11.040Z,99516.56
2023-05-17T12:49:40.939Z,99506.34
2023-05-17T12:52:11.328Z,99510.50
2023-05-17T12:54:41.966Z,99515.19
2023-05-17T12:57:15.998Z,99520.69
2023-05-17T12:59:49.573Z,99524.56
2023-05-17T13:02:21.451Z,99519.31
2023-05-17T13:04:50.068Z,99523.75
2023-05-17T13:07:24.822Z,99524.28
2023-05-17T13:09:53.382Z,99534.78
2023-05-17T13:12:24.335Z,99514.88
2023-05-17T13:14:54.924Z,99529.50
2023-05-17T13:17:36.973Z,99532.28
2023-05-17T13:20:10.562Z,99540.28
2023-05-17T13:22:46.540Z,99524.84
2023-05-17T13:25:15.955Z,99540.84
2023-05-17T13:27:48.970Z,99538.63
2023-05-17T13:30:18.206Z,99560.13
2023-05-17T13:32:48.203Z,99557.94
2023-05-17T13:35:16.770Z,99560.97
2023-05-17T13:37:45.192Z,99566.47
2023-05-17T13:40:15.222Z,99563.72
2023-05-17T13:42:43.766Z,99565.66
2023-05-17T13:45:13.837Z,99567.88
2023-05-17T13:47:42.598Z,99563.19
2023-05-17T13:50:16.009Z,99570.06
2023-05-17T13:52:45.095Z,99566.47
2023-05-17T13:55:13.644Z,99570.63
2023-05-17T13:57:42.374Z,99568.16
2023-05-17T14:00:12.665Z,99562.91
2023-05-17T14:02:41.336Z,99562.63
2023-05-17T14:05:10.634Z,99558.78
2023-05-17T14:07:41.605Z,99568.13
2023-05-17T14:10:12.261Z,99560.69
2023-05-17T14:12:41.290Z,99558.22
2023-05-17T14:15:12.284Z,99558.22
2023-05-17T14:17:41.329Z,99560.16
2023-05-17T14:20:11.893Z,99565.91
2023-05-17T14:22:42.049Z,99572.00
2023-05-17T14:25:12.011Z,99576.69
2023-05-17T14:27:40.726Z,99582.19
2023-05-17T14:30:12.157Z,99596.56
2023-05-17T14:32:42.153Z,99597.09
2023-05-17T14:35:11.906Z,99596.00
2023-05-17T14:37:41.871Z,99594.91
2023-05-17T14:40:12.349Z,99596.53
2023-05-17T14:42:40.975Z,99598.22
2023-05-17T14:45:10.473Z,99598.22
2023-05-17T14:47:39.017Z,99606.47
2023-05-17T14:50:09.042Z,99618.88
2023-05-17T14:52:37.915Z,99614.75
2023-05-17T14:55:09.893Z,99609.78
2023-05-17T14:57:40.085Z,99597.94
2023-05-17T15:00:11.443Z,99597.38
2023-05-17T15:02:40.269Z,99596.25
2023-05-17T15:05:10.734Z,99593.50
2023-05-17T15:07:39.315Z,99589.38
2023-05-17T15:10:13.000Z,99597.09
2023-05-17T15:12:41.589Z,99611.44
2023-05-17T15:15:11.546Z,99617.22
2023-05-17T15:17:40.076Z,99620.53
2023-05-17T15:20:11.291Z,99618.59
2023-05-17T15:22:39.872Z,99614.72
2023-05-17T15:25:10.316Z,99611.16
2023-05-17T15:27:38.773Z,99617.25
2023-05-17T15:30:11.324Z,99619.72
2023-05-17T15:32:41.186Z,99612.28
2023-05-17T15:35:10.944Z,99615.03
2023-05-17T15:37:39.420Z,99626.91
2023-05-17T15:40:11.981Z,99621.94
2023-05-17T15:42:40.501Z,99631.84
2023-05-17T15:45:10.912Z,99631.59
2023-05-17T15:47:43.672Z,99628.81
2023-05-17T15:50:12.851Z,99627.72
2023-05-17T15:52:41.434Z,99624.13
2023-05-17T15:55:12.868Z,99621.63
2023-05-17T15:57:42.315Z,99626.31
2023-05-17T16:00:12.574Z,99630.44
2023-05-17T16:02:41.255Z,99622.47
2023-05-17T16:05:10.666Z,99620.25
2023-05-17T16:07:39.096Z,99618.59
2023-05-17T16:10:11.372Z,99622.19
2023-05-17T16:12:39.844Z,99633.47
2023-05-17T16:15:10.297Z,99639.28
2023-05-17T16:17:38.884Z,99632.66
2023-05-17T16:20:09.417Z,99641.75
2023-05-17T16:22:37.852Z,99646.16
2023-05-17T16:25:07.469Z,99647.81
2023-05-17T16:27:37.290Z,99640.38
2023-05-17T16:30:07.256Z,99647.81
2023-05-17T16:32:36.106Z,99647.56
2023-05-17T16:35:04.859Z,99664.09
2023-05-17T16:37:33.427Z,99663.81
2023-05-17T16:40:02.083Z,99660.22
2023-05-17T16:42:31.231Z,99651.94
2023-05-17T16:45:01.257Z,99649.47
2023-05-17T16:47:29.853Z,99653.06
2023-05-17T16:49:58.664Z,99656.38
2023-05-17T16:52:27.326Z,99656.38
2023-05-17T16:55:02.979Z,99653.34
2023-05-17T16:57:32.363Z,99661.59
2023-05-17T17:00:02.403Z,99668.25
2023-05-17T17:02:31.137Z,99662.72
2023-05-17T17:04:59.645Z,99678.44
2023-05-17T17:07:28.030Z,99678.44
2023-05-17T17:09:56.519Z,99690.31
2023-05-17T17:12:26.204Z,99686.72
2023-05-17T17:14:54.863Z,99696.91
2023-05-17T17:17:24.739Z,99696.06
2023-05-17T17:19:53.424Z,99707.38
2023-05-17T17:22:21.871Z,99709.31
2023-05-17T17:24:50.513Z,99701.31
2023-05-17T17:27:18.999Z,99704.34
2023-05-17T17:29:47.529Z,99711.78
2023-05-17T17:32:16.422Z,99708.19
2023-05-17T17:34:46.453Z,99712.88
2023-05-17T17:37:15.005Z,99715.38
2023-05-17T17:39:43.433Z,99721.16
2023-05-17T17:42:12.138Z,99716.75
2023-05-17T17:44:40.636Z,99722.28
2023-05-17T17:47:09.118Z,99726.94
2023-05-17T17:49:37.561Z,99726.94
2023-05-17T17:52:07.782Z,99738.81
2023-05-17T17:54:36.304Z,99738.81
2023-05-17T17:57:05.042Z,99741.00
2023-05-17T17:59:33.549Z,99740.72
2023-05-17T18:02:02.075Z,99745.41
2023-05-17T18:04:30.547Z,99755.59
2023-05-17T18:06:59.017Z,99753.13
2023-05-17T18:09:28.861Z,99767.19
2023-05-17T18:11:59.778Z,99758.09
2023-05-17T18:14:28.188Z,99760.00
2023-05-17T18:16:56.672Z,99762.22
2023-05-17T18:19:25.483Z,99763.03
2023-05-17T18:21:54.124Z,99756.41
2023-05-17T18:24:22.723Z,99764.69
2023-05-17T18:26:53.007Z,99762.75
2023-05-17T18:29:22.113Z,99765.81
2023-05-17T18:31:51.986Z,99767.72
2023-05-17T18:34:21.182Z,99771.56
2023-05-17T18:36:50.546Z,99771.00
2023-05-17T18:39:19.960Z,99775.69
2023-05-17T18:41:49.444Z,99782.03
2023-05-17T18:44:20.109Z,99777.34
2023-05-17T18:46:50.078Z,99786.72
2023-05-17T18:49:19.050Z,99793.06
2023-05-17T18:51:47.883Z,99797.75
2023-05-17T18:54:16.994Z,99792.50
2023-05-17T18:56:48.264Z,99785.88
2023-05-17T18:59:18.760Z,99789.47
2023-05-17T19:01:48.093Z,99785.03
2023-05-17T19:04:16.740Z,99784.22
2023-05-17T19:06:47.867Z,99789.72
2023-05-17T19:09:18.541Z,99788.09
2023-05-17T19:11:48.779Z,99775.66
2023-05-17T19:14:19.758Z,99784.22
2023-05-17T19:16:50.609Z,99786.69
2023-05-17T19:19:22.528Z,99785.84
2023-05-17T19:21:52.135Z,99786.69
2023-05-17T19:24:21.585Z,99790.53
2023-05-17T19:26:50.331Z,99801.31
2023-05-17T19:29:21.274Z,99791.38
2023-05-17T19:31:50.347Z,99797.44
2023-05-17T19:34:19.355Z,99802.69
2023-05-17T19:36:47.790Z,99795.50
2023-05-17T19:39:18.615Z,99796.03
2023-05-17T19:41:47.083Z,99796.03
2023-05-17T19:44:17.040Z,99796.03
2023-05-17T19:46:47.521Z,99795.22
2023-05-17T19:49:17.173Z,99796.03
2023-05-17T19:51:46.842Z,99798.78
2023-05-17T19:54:15.590Z,99800.47
2023-05-17T19:56:45.037Z,99797.72
2023-05-17T19:59:16.194Z,99802.09
2023-05-17T20:01:46.243Z,99807.38
2023-05-17T20:04:16.242Z,99800.75
2023-05-17T20:06:45.455Z,99800.75
2023-05-17T20:09:14.476Z,99804.63
2023-05-17T20:11:43.946Z,99797.19
2023-05-17T20:14:13.808Z,99800.75
2023-05-17T20:16:43.289Z,99806.00
2023-05-17T20:19:14.031Z,99801.31
2023-05-17T20:21:42.862Z,99803.81
2023-05-17T20:24:11.619Z,99790.88
2023-05-17T20:26:40.518Z,99800.22
2023-05-17T20:29:10.369Z,99803.81
2023-05-17T20:31:39.250Z,99806.28
2023-05-17T20:34:07.759Z,99813.19
2023-05-17T20:36:37.959Z,99801.34
2023-05-17T20:39:06.669Z,99807.69
2023-05-17T20:41:35.146Z,99810.44
2023-05-17T20:44:03.781Z,99797.50
2023-05-17T20:46:32.492Z,99801.09
2023-05-17T20:49:02.232Z,99808.25
2023-05-17T20:51:31.094Z,99806.31
2023-05-17T20:54:00.940Z,99805.75
2023-05-17T20:56:29.420Z,99807.41
2023-05-17T20:58:57.838Z,99819.25
2023-05-17T21:01:26.727Z,99818.44
2023-05-17T21:03:55.374Z,99822.84
2023-05-17T21:06:25.401Z,99826.69
2023-05-17T21:08:54.021Z,99828.38
2023-05-17T21:11:24.053Z,99815.66
2023-05-17T21:13:52.682Z,99822.84
2023-05-17T21:16:21.248Z,99807.16
2023-05-17T21:18:49.657Z,99814.31
2023-05-17T21:21:18.177Z,99815.44
2023-05-17T21:23:46.622Z,99821.50
2023-05-17T21:26:15.589Z,99821.22
2023-05-17T21:28:45.459Z,99814.63
2023-05-17T21:31:14.657Z,99819.84
2023-05-17T21:33:43.119Z,99828.69
2023-05-17T21:36:11.639Z,99824.84
2023-05-17T21:38:40.059Z,99829.25
2023-05-17T21:41:08.534Z,99823.72
2023-05-17T21:43:36.989Z,99833.09
2023-05-17T21:46:06.925Z,99836.72
2023-05-17T21:48:35.436Z,99840.25
2023-05-17T21:51:03.866Z,99845.78
2023-05-17T21:53:32.343Z,99850.22
2023-05-17T21:56:03.237Z,99852.13
2023-05-17T21:58:32.753Z,99843.88
2023-05-17T22:01:01.449Z,99838.34
2023-05-17T22:03:31.480Z,99843.03
2023-05-17T22:05:59.997Z,99852.97
2023-05-17T22:08:28.589Z,99858.47
2023-05-17T22:10:57.259Z,99858.47
2023-05-17T22:13:26.947Z,99842.78
2023-05-17T22:15:57.355Z,99863.44
2023-05-17T22:18:27.536Z,99854.06
2023-05-17T22:20:59.340Z,99841.09
2023-05-17T22:23:28.223Z,99836.41
2023-05-17T22:26:00.375Z,99831.19
2023-05-17T22:28:29.485Z,99836.41
2023-05-17T22:30:58.154Z,99840.25
2023-05-17T22:33:29.705Z,99843.88
2023-05-17T22:35:59.685Z,99838.06
2023-05-17T22:38:28.040Z,99838.91
2023-05-17T22:40:56.693Z,99832.56
2023-05-17T22:43:28.183Z,99836.16
2023-05-17T22:46:00.120Z,99832.56
2023-05-17T22:48:30.496Z,99838.66
2023-05-17T22:51:01.020Z,99838.66
2023-05-17T22:53:31.225Z,99832.31
2023-05-17T22:55:59.619Z,99836.69
2023-05-17T22:58:28.156Z,99834.78
2023-05-17T23:00:56.525Z,99833.13
2023-05-17T23:03:25.009Z,99824.59
2023-05-17T23:06:02.162Z,99829.25
2023-05-17T23:08:32.941Z,99829.25
2023-05-17T23:11:01.835Z,99826.50
2023-05-17T23:13:30.358Z,99830.66
2023-05-17T23:15:58.787Z,99825.16
2023-05-17T23:18:28.002Z,99835.91
2023-05-17T23:20:56.399Z,99831.22
2023-05-17T23:23:24.790Z,99822.69
2023-05-17T23:25:56.517Z,99820.75
2023-05-17T23:28:25.231Z,99821.28
2023-05-17T23:30:54.597Z,99819.38
2023-05-17T23:33:23.017Z,99817.44
2023-05-17T23:35:53.563Z,99817.16
2023-05-17T23:38:22.337Z,99816.38
2023-05-17T23:40:50.850Z,99812.78
2023-05-17T23:43:20.811Z,99813.31
2023-05-17T23:45:49.268Z,99813.03
2023-05-17T23:48:20.767Z,99811.69
2023-05-17T23:50:49.286Z,99806.16
2023-05-17T23:53:18.676Z,99800.66
2023-05-17T23:55:47.543Z,99805.06
2023-05-17T23:58:16.056Z,99805.91
